Time;durP1;ratioP1;P1;durP2;ratioP2;P2;SDS_P1;SDS_P2;PMS_P1;PMS_P2;Temp;Humidity;BMP_temperature;BMP_pressure;BME280_temperature;BME280_humidity;BME280_pressure;Samples;Min_cycle;Max_cycle;Signal;HPM_P1;HPM_P2
2022/08/16 00:01:43;;;;;;;5.05;2.75;;;;;;;25.19;42.21;98889.63;7619360;32;40096;-74
2022/08/16 00:06:00;;;;;;;5.12;3.30;;;;;;;25.23;41.64;98885.69;7632570;32;41478;-73
2022/08/16 00:10:18;;;;;;;5.18;2.95;;;;;;;25.12;41.94;98890.41;7632223;32;39553;-73
2022/08/16 00:14:36;;;;;;;4.93;2.75;;;;;;;25.19;41.24;98890.44;7631934;32;37663;-73
2022/08/16 00:18:52;;;;;;;7.43;3.05;;;;;;;25.09;41.43;98886.44;7632144;32;39312;-73
2022/08/16 00:23:08;;;;;;;3.37;2.72;;;;;;;24.96;42.30;98878.75;7631277;32;39890;-71
2022/08/16 00:27:25;;;;;;;4.97;3.20;;;;;;;24.95;42.43;98875.19;7632115;32;37925;-72
2022/08/16 00:31:47;;;;;;;4.43;3.05;;;;;;;25.07;42.14;98894.38;7632007;32;37285;-74
2022/08/16 00:36:20;;;;;;;4.72;3.00;;;;;;;24.91;42.66;98891.91;7632380;32;39174;-73
2022/08/16 00:40:41;;;;;;;6.05;3.17;;;;;;;24.76;43.14;98889.44;7632043;32;39707;-73
2022/08/16 00:45:24;;;;;;;6.47;3.20;;;;;;;24.84;42.81;98896.66;7619213;32;37920;-73
2022/08/16 00:49:40;;;;;;;5.62;3.37;;;;;;;24.49;43.72;98886.84;7632056;32;37338;-73
2022/08/16 00:53:59;;;;;;;6.07;3.65;;;;;;;24.62;43.16;98888.16;7631829;32;39532;-74
2022/08/16 00:58:18;;;;;;;7.68;3.37;;;;;;;24.81;42.59;98894.63;7631880;32;40067;-74
2022/08/16 01:02:50;;;;;;;5.03;3.20;;;;;;;24.63;42.67;98895.34;7631542;32;38118;-73
2022/08/16 01:07:08;;;;;;;5.03;3.35;;;;;;;24.47;43.19;98890.00;7631805;32;35939;-74
2022/08/16 01:11:25;;;;;;;6.07;3.60;;;;;;;24.45;43.19;98897.16;7617999;32;39105;-74
2022/08/16 01:15:46;;;;;;;6.55;3.47;;;;;;;24.40;43.10;98897.53;7617999;32;39979;-73
2022/08/16 01:20:10;;;;;;;4.53;3.40;;;;;;;24.38;43.26;98901.47;7631432;32;38797;-73
2022/08/16 01:24:49;;;;;;;6.95;3.42;;;;;;;24.34;43.30;98900.66;7619360;32;37227;-74
2022/08/16 01:29:12;;;;;;;5.65;3.30;;;;;;;23.87;44.92;98907.00;7619421;32;39091;-73
2022/08/16 01:33:29;;;;;;;7.15;3.50;;;;;;;24.30;43.40;98904.59;7629268;32;39932;-73
2022/08/16 01:37:53;;;;;;;9.68;3.70;;;;;;;24.00;44.39;98909.13;7630870;32;38739;-73
2022/08/16 01:42:11;;;;;;;7.82;3.80;;;;;;;23.96;44.53;98918.66;7630799;32;37219;-73
2022/08/16 01:46:42;;;;;;;7.60;3.97;;;;;;;23.83;45.20;98917.31;7631005;32;39135;-73
2022/08/16 01:50:59;;;;;;;7.75;3.53;;;;;;;23.81;45.12;98914.91;7630794;32;40620;-73
2022/08/16 01:55:31;;;;;;;6.20;3.62;;;;;;;23.67;45.71;98915.53;7604692;32;38010;-73
2022/08/16 01:59:50;;;;;;;6.18;3.60;;;;;;;23.57;46.46;98922.56;7604529;32;37099;-73
2022/08/16 02:04:09;;;;;;;5.55;3.30;;;;;;;23.57;46.71;98922.56;7624639;32;39442;-73
2022/08/16 02:08:26;;;;;;;5.37;3.40;;;;;;;23.53;46.95;98912.63;7630299;32;40054;-74
2022/08/16 02:12:48;;;;;;;6.50;3.35;;;;;;;23.36;47.90;98917.56;7629405;32;37919;-74
2022/08/16 02:17:15;;;;;;;5.18;3.50;;;;;;;23.30;48.15;98913.53;7630178;32;37355;-73
2022/08/16 02:21:31;;;;;;;5.43;3.53;;;;;;;23.34;47.66;98908.03;7629864;32;40088;-74
2022/08/16 02:25:48;;;;;;;6.57;3.80;;;;;;;23.31;47.07;98909.56;7616677;32;39782;-73
2022/08/16 02:30:13;;;;;;;5.80;3.80;;;;;;;23.40;46.59;98906.50;7616984;32;38751;-73
2022/08/16 02:34:49;;;;;;;5.20;3.42;;;;;;;23.21;47.25;98911.03;7629212;32;37344;-73
2022/08/16 02:39:12;;;;;;;9.10;3.83;;;;;;;23.34;47.03;98902.47;7629572;32;39352;-73
2022/08/16 02:43:33;;;;;;;8.05;3.60;;;;;;;23.04;47.69;98906.00;7629039;32;40932;-74
2022/08/16 02:47:53;;;;;;;6.80;3.80;;;;;;;23.40;46.59;98896.19;7633407;32;38708;-73
2022/08/16 02:52:17;;;;;;;5.45;3.62;;;;;;;23.16;47.22;98902.22;7633174;32;38065;-73
2022/08/16 02:56:45;;;;;;;5.93;3.60;;;;;;;22.77;48.65;98906.06;7633459;32;40263;-74
2022/08/16 03:01:02;;;;;;;5.60;3.90;;;;;;;22.83;48.55;98910.09;7632601;32;41696;-74
2022/08/16 03:05:19;;;;;;;7.22;3.67;;;;;;;22.63;48.87;98909.44;7632781;32;38712;-72
2022/08/16 03:09:36;;;;;;;7.60;3.78;;;;;;;22.79;48.45;98911.25;7632961;32;36729;-73
2022/08/16 03:13:54;;;;;;;7.45;4.00;;;;;;;22.69;48.75;98907.12;7632842;32;39495;-74
2022/08/16 03:18:12;;;;;;;8.23;3.97;;;;;;;22.74;48.56;98901.25;7633052;32;40034;-74
2022/08/16 03:22:48;;;;;;;7.53;4.35;;;;;;;22.05;50.86;98921.56;7632282;32;37907;-72
2022/08/16 03:27:04;;;;;;;7.68;4.20;;;;;;;22.33;49.96;98911.34;7619600;32;36727;-72
2022/08/16 03:31:21;;;;;;;7.37;3.85;;;;;;;22.32;50.22;98918.87;7632722;32;39319;-73
2022/08/16 03:35:38;;;;;;;6.97;3.60;;;;;;;22.42;50.00;98920.22;7632675;32;40794;-73
2022/08/16 03:39:55;;;;;;;11.60;4.00;;;;;;;22.48;49.77;98913.19;7632194;32;37949;-73
2022/08/16 03:44:18;;;;;;;7.47;4.32;;;;;;;23.05;48.65;98922.34;7632453;32;37310;-72
2022/08/16 03:48:56;;;;;;;8.15;4.47;;;;;;;22.76;48.73;98931.44;7632000;32;39705;-73
2022/08/16 03:53:12;;;;;;;7.93;4.35;;;;;;;22.95;48.13;98933.31;7632671;32;40619;-72
2022/08/16 03:57:29;;;;;;;7.93;4.43;;;;;;;22.94;48.02;98945.59;7631605;32;38528;-72
2022/08/16 04:01:50;;;;;;;10.18;4.43;;;;;;;22.88;48.54;98945.91;7631491;32;36742;-73
2022/08/16 04:06:08;;;;;;;6.15;4.03;;;;;;;22.86;48.89;98950.25;7632311;32;38523;-72
2022/08/16 04:10:24;;;;;;;5.50;3.92;;;;;;;22.71;49.37;98952.00;7631733;32;40927;-73
2022/08/16 04:14:53;;;;;;;7.40;4.40;;;;;;;22.88;49.00;98947.91;7632078;32;36484;-77
2022/08/16 04:19:09;;;;;;;6.22;4.05;;;;;;;23.15;48.65;98948.69;7631798;32;37105;-78
2022/08/16 04:23:25;;;;;;;10.80;3.70;;;;;;;23.19;48.50;98951.53;7632015;32;39326;-77
2022/08/16 04:27:42;;;;;;;10.15;4.75;;;;;;;23.28;47.94;98951.22;7632104;32;39910;-78
2022/08/16 04:32:11;;;;;;;7.37;4.12;;;;;;;23.32;48.65;98957.63;7631273;32;37005;-78
2022/08/16 04:36:28;;;;;;;7.40;4.28;;;;;;;23.16;48.91;98963.38;7631370;32;37115;-78
2022/08/16 04:40:46;;;;;;;10.15;4.20;;;;;;;23.25;48.57;98970.28;7631450;32;40294;-79
2022/08/16 04:45:06;;;;;;;9.05;3.75;;;;;;;23.27;49.22;98964.34;7631662;32;38989;-78
2022/08/16 04:49:22;;;;;;;7.45;4.22;;;;;;;23.37;49.48;98962.88;7631335;32;37779;-78
2022/08/16 04:53:39;;;;;;;11.80;5.00;;;;;;;23.41;49.31;98956.16;7631712;32;37909;-79
2022/08/16 04:57:56;;;;;;;7.40;4.25;;;;;;;23.22;51.08;98970.25;7631078;32;39902;-77
2022/08/16 05:02:12;;;;;;;7.50;3.55;;;;;;;23.44;50.75;98974.09;7631390;32;40434;-72
2022/08/16 05:06:50;;;;;;;7.68;4.37;;;;;;;23.56;50.53;98971.06;7630726;32;38259;-71
2022/08/16 05:11:08;;;;;;;13.00;4.90;;;;;;;23.63;49.21;98960.00;7631513;32;35402;-71
2022/08/16 05:15:26;;;;;;;13.20;4.72;;;;;;;23.54;49.91;98955.91;7631049;32;39428;-71
2022/08/16 05:19:42;;;;;;;9.18;3.70;;;;;;;23.63;49.38;98962.00;7630846;32;40563;-71
2022/08/16 05:24:12;;;;;;;10.43;4.00;;;;;;;23.45;50.08;98972.91;7630796;32;38030;-72
2022/08/16 05:28:36;;;;;;;10.10;4.40;;;;;;;23.65;50.07;98979.13;7630932;32;37146;-71
2022/08/16 05:32:54;;;;;;;9.25;4.05;;;;;;;23.71;50.00;98968.44;7630675;32;39593;-72
2022/08/16 05:37:10;;;;;;;21.42;4.30;;;;;;;23.74;48.81;98965.69;7630550;32;40520;-71
2022/08/16 05:41:30;;;;;;;10.40;4.28;;;;;;;23.79;49.59;98973.69;7630371;32;37885;-71
2022/08/16 05:45:47;;;;;;;10.70;4.47;;;;;;;23.85;48.71;98982.53;7630257;32;37132;-71
2022/08/16 05:50:06;;;;;;;8.15;4.20;;;;;;;23.31;49.38;98993.00;7630182;32;39428;-73
2022/08/16 05:54:34;;;;;;;9.45;4.60;;;;;;;23.84;48.01;98997.66;7630326;32;40621;-72
2022/08/16 05:58:50;;;;;;;7.28;4.00;;;;;;;23.67;49.40;99001.78;7630074;32;37900;-71
2022/08/16 06:03:06;;;;;;;13.52;4.60;;;;;;;23.72;50.03;99004.22;7630054;32;37043;-71
2022/08/16 06:07:27;;;;;;;12.25;4.78;;;;;;;23.92;49.88;99004.91;7630127;32;39490;-72
2022/08/16 06:11:46;;;;;;;12.02;4.82;;;;;;;23.75;51.22;99005.44;7629730;32;39935;-73
2022/08/16 06:16:06;;;;;;;7.10;4.72;;;;;;;23.77;51.15;99006.69;7629735;32;37961;-78
2022/08/16 06:20:24;;;;;;;11.25;5.00;;;;;;;23.83;51.33;99012.72;7631099;32;37851;-83
2022/08/16 06:24:51;;;;;;;8.25;4.32;;;;;;;24.07;51.38;99016.19;7633133;32;40212;-72
2022/08/16 06:29:10;;;;;;;7.93;4.68;;;;;;;24.26;50.49;99035.47;7633075;32;41180;-74
2022/08/16 06:33:29;;;;;;;10.95;4.43;;;;;;;24.44;49.97;99029.25;7633041;32;36896;-72
2022/08/16 06:37:57;;;;;;;6.90;4.60;;;;;;;24.68;48.32;99028.72;7632924;32;37462;-71
2022/08/16 06:42:13;;;;;;;9.40;4.40;;;;;;;25.16;46.77;99029.84;7632971;32;40163;-73
2022/08/16 06:46:36;;;;;;;9.90;4.75;;;;;;;25.25;46.15;99028.34;7632890;32;40818;-72
2022/08/16 06:50:53;;;;;;;9.20;4.22;;;;;;;25.63;44.38;99026.16;7619755;32;38755;-72
2022/08/16 06:55:11;;;;;;;8.50;4.62;;;;;;;25.53;44.50;99028.91;7633003;32;36837;-73
2022/08/16 06:59:29;;;;;;;7.78;4.00;;;;;;;25.94;43.12;99032.28;7633016;32;39321;-72
2022/08/16 07:04:06;;;;;;;13.23;4.50;;;;;;;25.76;43.33;99034.97;7632625;32;40222;-73
2022/08/16 07:08:27;;;;;;;26.17;5.45;;;;;;;25.69;43.45;99032.16;7632920;32;38917;-74
2022/08/16 07:12:43;;;;;;;10.57;4.43;;;;;;;25.68;44.16;99042.53;7632826;32;37187;-76
2022/08/16 07:17:03;;;;;;;15.32;4.60;;;;;;;25.74;43.57;99034.56;7632773;32;39050;-75
2022/08/16 07:21:27;;;;;;;8.07;4.20;;;;;;;25.88;42.75;99041.41;7632646;32;39741;-76
2022/08/16 07:26:00;;;;;;;7.97;4.32;;;;;;;26.44;41.48;99028.81;7632781;32;38023;-74
2022/08/16 07:30:18;;;;;;;9.35;4.10;;;;;;;25.98;41.55;99037.88;7632112;32;37032;-74
2022/08/16 07:34:54;;;;;;;8.38;4.50;;;;;;;26.76;39.60;99023.22;7632391;32;40613;-72
2022/08/16 07:39:11;;;;;;;8.43;3.95;;;;;;;26.93;38.36;99026.44;7632562;32;40238;-76
2022/08/16 07:43:28;;;;;;;8.75;3.92;;;;;;;27.64;37.58;99022.66;7632621;32;37594;-76
2022/08/16 07:47:44;;;;;;;8.20;4.12;;;;;;;27.62;37.85;99032.69;7632656;32;37135;-77
2022/08/16 07:52:06;;;;;;;6.43;3.83;;;;;;;28.21;36.83;99034.81;7632604;32;39038;-75
2022/08/16 07:56:35;;;;;;;9.15;4.40;;;;;;;28.17;35.44;99042.47;7632622;32;40016;-75
2022/08/16 08:00:52;;;;;;;10.20;4.43;;;;;;;28.28;36.30;99043.19;7632347;32;38524;-75
2022/08/16 08:05:08;;;;;;;6.43;4.07;;;;;;;28.55;36.13;99028.62;7632230;32;38046;-75
2022/08/16 08:09:25;;;;;;;6.10;3.83;;;;;;;28.35;33.98;99039.53;7631225;32;39439;-74
2022/08/16 08:13:42;;;;;;;6.15;3.80;;;;;;;27.75;35.54;99030.22;7631440;32;40664;-75
2022/08/16 08:17:59;;;;;;;15.27;4.75;;;;;;;27.77;36.68;99022.22;7632160;32;38551;-74
2022/08/16 08:22:35;;;;;;;6.75;4.00;;;;;;;27.52;38.54;99037.12;7631896;32;37290;-74
2022/08/16 08:26:53;;;;;;;10.10;4.47;;;;;;;27.52;39.11;99037.12;7632371;32;39020;-74
2022/08/16 08:31:09;;;;;;;8.00;4.93;;;;;;;27.75;39.08;99030.22;7632141;32;39986;-74
2022/08/16 08:35:31;;;;;;;8.25;4.55;;;;;;;27.75;39.22;99035.81;7632068;32;37866;-73
2022/08/16 08:39:48;;;;;;;13.98;4.53;;;;;;;27.88;39.11;99045.38;7631886;32;36824;-75
2022/08/16 08:44:11;;;;;;;9.20;4.32;;;;;;;28.25;38.38;99036.41;7631904;32;37464;-76
2022/08/16 08:48:47;;;;;;;8.10;4.97;;;;;;;28.16;38.48;99038.06;7631656;32;40936;-75
2022/08/16 08:53:15;;;;;;;10.02;4.87;;;;;;;28.69;37.36;99025.69;7631802;32;38002;-76
2022/08/16 08:57:32;;;;;;;7.78;4.55;;;;;;;29.15;35.46;99013.25;7628355;32;36863;-75
2022/08/16 09:01:49;;;;;;;9.27;4.97;;;;;;;29.19;35.46;99024.47;7614724;32;39042;-76
2022/08/16 09:06:12;;;;;;;10.05;4.37;;;;;;;29.00;35.64;99025.81;7628724;32;40714;-75
2022/08/16 09:10:33;;;;;;;5.95;4.12;;;;;;;28.90;35.69;99018.31;7630878;32;37882;-75
2022/08/16 09:14:55;;;;;;;6.60;4.03;;;;;;;29.49;35.34;99015.28;7631629;32;37938;-77
2022/08/16 09:19:11;;;;;;;8.77;3.92;;;;;;;29.54;34.63;99017.63;7631362;32;39513;-76
2022/08/16 09:23:30;;;;;;;8.23;4.40;;;;;;;30.52;33.15;99005.88;7631348;32;40239;-76
2022/08/16 09:27:51;;;;;;;6.22;3.87;;;;;;;30.19;33.29;98999.94;7631277;32;37951;-75
2022/08/16 09:32:17;;;;;;;8.50;3.85;;;;;;;30.40;32.11;99003.69;7631376;32;37337;-75
2022/08/16 09:36:45;;;;;;;7.50;3.92;;;;;;;30.62;32.35;98999.28;7631295;32;40070;-77
2022/08/16 09:41:03;;;;;;;6.80;4.25;;;;;;;31.24;31.02;98988.56;7631108;32;40007;-77
2022/08/16 09:45:20;;;;;;;7.05;4.12;;;;;;;30.95;31.17;98991.12;7631327;32;38769;-77
2022/08/16 09:49:37;;;;;;;11.93;4.53;;;;;;;31.54;30.22;98988.81;7631043;32;37088;-76
2022/08/16 09:53:56;;;;;;;11.05;3.97;;;;;;;31.56;29.99;98986.34;7618100;32;39062;-77
2022/08/16 09:58:13;;;;;;;7.30;4.10;;;;;;;32.10;29.88;98980.34;7634057;32;40032;-77
2022/08/16 10:02:51;;;;;;;7.53;4.18;;;;;;;32.06;29.35;98982.44;7633458;32;39219;-76
2022/08/16 10:07:07;;;;;;;9.18;4.32;;;;;;;32.21;28.61;98982.13;7633731;32;37160;-76
2022/08/16 10:16:07;;;;;;;7.93;4.00;;;;;;;32.56;27.54;98975.62;7633832;32;39796;-77
2022/08/16 10:20:33;;;;;;;10.65;4.00;;;;;;;32.46;28.49;98967.41;7633692;32;39105;-76
2022/08/16 10:24:50;;;;;;;7.30;3.92;;;;;;;32.84;27.69;98970.50;7633772;32;36845;-76
2022/08/16 10:29:15;;;;;;;6.68;3.97;;;;;;;33.59;26.71;98966.81;7633736;32;40153;-76
2022/08/16 10:33:35;;;;;;;6.35;4.12;;;;;;;33.84;25.96;98960.44;7633675;32;39902;-75
2022/08/16 10:37:55;;;;;;;5.57;3.50;;;;;;;33.54;26.22;98968.16;7633551;32;37834;-76
2022/08/16 10:42:12;;;;;;;6.07;3.70;;;;;;;33.52;26.85;98967.03;7633481;32;37079;-77
2022/08/16 10:46:29;;;;;;;5.72;3.70;;;;;;;34.02;26.45;98957.06;7633503;32;39275;-76
2022/08/16 10:50:57;;;;;;;6.15;3.45;;;;;;;33.93;25.57;98963.41;7633429;32;40082;-76
2022/08/16 10:55:14;;;;;;;4.75;3.47;;;;;;;33.74;26.06;98951.06;7633258;32;37672;-77
2022/08/16 10:59:52;;;;;;;5.28;3.60;;;;;;;34.76;24.30;98944.53;7632837;32;37676;-77
2022/08/16 11:04:13;;;;;;;5.10;3.65;;;;;;;34.49;24.30;98942.19;7633285;32;40164;-76
2022/08/16 11:08:49;;;;;;;5.22;3.65;;;;;;;35.01;24.05;98939.25;7632618;32;40334;-76
2022/08/16 11:13:26;;;;;;;7.93;3.75;;;;;;;34.78;23.46;98939.22;7632607;32;39139;-77
2022/08/16 11:18:02;;;;;;;5.78;3.45;;;;;;;34.65;24.00;98938.44;7632229;32;37118;-74
2022/08/16 11:22:41;;;;;;;6.47;3.17;;;;;;;34.59;23.62;98935.38;7632473;32;40713;-75
2022/08/16 11:27:05;;;;;;;7.28;3.60;;;;;;;34.94;22.66;98934.63;7620133;32;40084;-75
2022/08/16 11:31:39;;;;;;;7.12;3.37;;;;;;;34.84;23.18;98947.13;7632761;32;36715;-75
2022/08/16 11:36:01;;;;;;;5.85;3.72;;;;;;;35.17;23.23;98942.69;7632872;32;37136;-76
2022/08/16 11:40:45;;;;;;;4.65;3.42;;;;;;;35.82;21.71;98937.44;7632099;32;40583;-74
2022/08/16 11:45:09;;;;;;;5.50;3.60;;;;;;;36.25;20.61;98930.03;7632677;32;39995;-75
2022/08/16 11:49:26;;;;;;;4.75;2.95;;;;;;;35.18;21.70;98935.75;7627194;32;176298;-76
2022/08/16 11:53:42;;;;;;;7.12;3.12;;;;;;;36.33;20.21;98924.09;7632499;32;37727;-76
2022/08/16 11:58:01;;;;;;;8.65;3.60;;;;;;;36.44;19.75;98921.56;7632605;32;38021;-75
2022/08/16 12:02:18;;;;;;;5.05;3.08;;;;;;;36.79;20.16;98918.47;7632503;32;39029;-76
2022/08/16 12:06:48;;;;;;;3.35;2.87;;;;;;;37.74;17.87;98914.59;7632265;32;38719;-76
2022/08/16 12:11:08;;;;;;;4.37;3.03;;;;;;;36.94;19.45;98915.81;7632318;32;36785;-75
2022/08/16 12:15:25;;;;;;;6.97;2.85;;;;;;;37.03;19.07;98913.75;7632225;32;39405;-75
2022/08/16 12:19:45;;;;;;;8.15;3.08;;;;;;;37.70;17.92;98907.47;7631603;32;40088;-76
2022/08/16 12:24:04;;;;;;;8.23;3.42;;;;;;;37.62;18.25;98907.03;7632208;32;37908;-75
2022/08/16 12:28:20;;;;;;;4.50;3.17;;;;;;;38.04;17.68;98905.44;7618956;32;38135;-74
2022/08/16 12:32:57;;;;;;;3.83;2.87;;;;;;;36.61;18.96;98905.03;7631419;32;39748;-75
2022/08/16 12:37:15;;;;;;;10.38;3.03;;;;;;;38.38;17.59;98897.66;7631911;32;39671;-75
2022/08/16 12:41:32;;;;;;;7.68;2.92;;;;;;;38.63;16.23;98891.50;7631659;32;38051;-74
2022/08/16 12:45:52;;;;;;;5.97;3.10;;;;;;;37.65;17.09;98894.69;7631759;32;38793;-75
2022/08/16 12:50:08;;;;;;;5.28;2.80;;;;;;;37.08;17.99;98894.50;7631937;32;39779;-76
2022/08/16 12:54:30;;;;;;;5.28;2.37;;;;;;;37.64;17.46;98898.03;7619051;32;40013;-75
2022/08/16 12:58:49;;;;;;;5.28;2.60;;;;;;;37.99;16.86;98898.34;7631945;32;37830;-75
2022/08/16 13:03:08;;;;;;;6.72;2.70;;;;;;;37.87;17.41;98893.66;7631956;32;36141;-75
2022/08/16 13:07:24;;;;;;;9.35;2.75;;;;;;;37.50;17.12;98890.97;7631799;32;39345;-75
2022/08/16 13:11:47;;;;;;;4.22;2.80;;;;;;;36.72;18.37;98887.56;7631581;32;39729;-75
2022/08/16 13:16:13;;;;;;;4.07;2.37;;;;;;;37.21;17.41;98889.44;7631368;32;38019;-76
2022/08/16 13:20:35;;;;;;;8.63;2.62;;;;;;;36.81;16.85;98887.59;7631297;32;37960;-74
2022/08/16 13:24:53;;;;;;;7.55;3.35;;;;;;;36.64;17.48;98882.19;7629701;32;39123;-75
2022/08/16 13:29:09;;;;;;;5.07;2.78;;;;;;;36.32;18.40;98879.94;7629021;32;40787;-74
2022/08/16 13:33:29;;;;;;;7.47;3.03;;;;;;;36.41;18.81;98880.75;7629039;32;38219;-74
2022/08/16 13:37:45;;;;;;;9.07;2.90;;;;;;;36.28;18.50;98869.53;7630550;32;37326;-74
2022/08/16 13:42:03;;;;;;;7.80;3.12;;;;;;;35.89;18.97;98871.94;7629355;32;40170;-74
2022/08/16 13:46:21;;;;;;;6.22;2.72;;;;;;;35.63;20.21;98877.00;7629398;32;38959;-74
2022/08/16 13:50:38;;;;;;;5.87;3.30;;;;;;;35.07;20.15;98881.56;7629874;32;38617;-74
2022/08/16 13:55:08;;;;;;;10.50;3.00;;;;;;;35.28;20.23;98862.19;7631363;32;37324;-74
2022/08/16 13:59:32;;;;;;;4.80;3.08;;;;;;;35.48;20.29;98868.28;7630259;32;38996;-74
2022/08/16 14:03:49;;;;;;;4.82;2.67;;;;;;;35.18;20.04;98862.09;7630158;32;39873;-74
2022/08/16 14:08:10;;;;;;;4.10;2.90;;;;;;;35.18;20.38;98867.75;7630348;32;38804;-75
2022/08/16 14:12:31;;;;;;;4.32;2.95;;;;;;;34.84;20.52;98860.16;7629574;32;37744;-75
2022/08/16 14:16:47;;;;;;;8.50;2.70;;;;;;;35.16;20.59;98864.63;7629581;32;38543;-75
2022/08/16 14:21:04;;;;;;;4.50;2.70;;;;;;;35.57;19.66;98852.59;7629474;32;40018;-74
2022/08/16 14:25:23;;;;;;;4.82;2.92;;;;;;;35.45;19.67;98852.22;7628782;32;37835;-74
2022/08/16 14:29:41;;;;;;;11.80;3.17;;;;;;;35.27;19.66;98857.78;7629582;32;36159;-74
2022/08/16 14:33:57;;;;;;;5.78;2.80;;;;;;;35.76;19.12;98854.25;7615486;32;39424;-74
2022/08/16 14:38:16;;;;;;;5.12;2.50;;;;;;;36.32;18.59;98855.19;7629567;32;40861;-75
2022/08/16 14:42:34;;;;;;;3.58;2.50;;;;;;;36.54;18.56;98866.41;7631925;32;37000;-74
2022/08/16 14:46:51;;;;;;;4.37;2.80;;;;;;;36.52;17.64;98868.94;7619344;32;37166;-74
2022/08/16 14:51:09;;;;;;;7.22;3.00;;;;;;;36.84;17.15;98861.06;7617714;32;39065;-75
2022/08/16 14:55:27;;;;;;;7.32;3.17;;;;;;;37.70;16.58;98868.47;7618625;32;40538;-75
2022/08/16 14:59:43;;;;;;;3.83;2.70;;;;;;;38.23;16.03;98852.09;7632860;32;38593;-75
2022/08/16 15:04:00;;;;;;;4.07;2.45;;;;;;;37.96;16.35;98856.63;7633060;32;37165;-77
2022/08/16 15:08:17;;;;;;;4.97;2.60;;;;;;;37.99;16.77;98858.53;7633150;32;40113;-75
2022/08/16 15:12:35;;;;;;;10.52;2.60;;;;;;;37.64;17.47;98863.91;7632719;32;40013;-75
2022/08/16 15:16:53;;;;;;;3.87;2.60;;;;;;;37.90;17.19;98876.44;7632884;32;38423;-74
2022/08/16 15:21:09;;;;;;;4.53;2.53;;;;;;;37.95;15.83;98875.00;7633308;32;37945;-76
2022/08/16 15:25:30;;;;;;;3.72;2.55;;;;;;;37.27;16.43;98870.47;7618719;32;40047;-75
2022/08/16 15:29:47;;;;;;;3.37;2.60;;;;;;;37.53;16.92;98865.19;7632504;32;39959;-73
2022/08/16 15:34:08;;;;;;;6.60;3.20;;;;;;;37.52;17.28;98882.75;7632465;32;37874;-75
2022/08/16 15:38:34;;;;;;;3.87;2.78;;;;;;;37.30;17.05;98883.72;7632755;32;37145;-75
2022/08/16 15:43:11;;;;;;;4.70;2.50;;;;;;;37.36;17.05;98884.69;7624141;32;40559;-75
2022/08/16 15:47:28;;;;;;;6.72;2.92;;;;;;;37.64;16.66;98878.13;7632436;32;39637;-76
2022/08/16 15:51:44;;;;;;;4.60;2.47;;;;;;;37.51;16.53;98890.44;7631503;32;37556;-77
2022/08/16 15:56:01;;;;;;;8.18;2.70;;;;;;;37.45;16.40;98868.88;7632460;32;37261;-76
2022/08/16 16:00:21;;;;;;;7.60;3.00;;;;;;;36.82;16.92;98889.94;7631663;32;39054;-76
2022/08/16 16:04:41;;;;;;;5.10;2.72;;;;;;;37.11;16.59;98885.03;7628719;32;40136;-75
2022/08/16 16:08:57;;;;;;;6.30;2.35;;;;;;;37.11;17.04;98877.28;7630590;32;39105;-75
2022/08/16 16:13:14;;;;;;;7.53;2.67;;;;;;;37.13;16.93;98882.47;7631637;32;37115;-75
2022/08/16 16:17:31;;;;;;;3.40;2.40;;;;;;;37.37;17.00;98891.13;7630174;32;39366;-76
2022/08/16 16:21:48;;;;;;;4.03;2.80;;;;;;;37.16;16.63;98888.00;7631862;32;40740;-76
2022/08/16 16:26:09;;;;;;;7.37;2.83;;;;;;;36.88;17.11;98895.78;7632098;32;37988;-74
2022/08/16 16:30:29;;;;;;;4.82;2.28;;;;;;;37.02;17.45;98900.03;7632314;32;37928;-74
2022/08/16 16:34:59;;;;;;;4.50;2.62;;;;;;;37.20;17.71;98910.59;7630728;32;39276;-76
2022/08/16 16:39:15;;;;;;;3.92;2.50;;;;;;;36.91;18.35;98928.91;7629758;32;40048;-76
2022/08/16 16:43:34;;;;;;;9.63;2.60;;;;;;;36.19;19.13;98931.91;7630875;32;37951;-76
2022/08/16 16:47:50;;;;;;;5.10;2.60;;;;;;;36.01;19.58;98926.94;7631698;32;38032;-71
2022/08/16 16:52:15;;;;;;;3.58;2.47;;;;;;;35.48;20.25;98933.47;7631345;32;39322;-75
2022/08/16 16:56:51;;;;;;;5.47;2.92;;;;;;;35.05;20.84;98937.06;7620396;32;41213;-73
2022/08/16 17:01:07;;;;;;;2.80;2.25;;;;;;;34.81;21.03;98957.34;7631302;32;37654;-74
2022/08/16 17:05:28;;;;;;;6.82;2.65;;;;;;;34.16;21.59;98962.25;7630689;32;38321;-74
2022/08/16 17:09:47;;;;;;;3.85;1.95;;;;;;;34.27;21.69;98959.09;7630565;32;39371;-75
2022/08/16 17:14:05;;;;;;;5.57;2.50;;;;;;;33.56;22.34;98973.38;7629918;32;40932;-74
2022/08/16 17:18:35;;;;;;;5.53;2.97;;;;;;;34.05;21.84;98982.38;7629442;32;38005;-74
2022/08/16 17:23:12;;;;;;;7.43;4.78;;;;;;;33.81;22.24;98989.63;7629596;32;36041;-75
2022/08/16 17:27:29;;;;;;;8.35;3.85;;;;;;;33.42;23.16;99000.78;7629524;32;39014;-75
2022/08/16 17:31:49;;;;;;;18.77;7.78;;;;;;;33.27;23.69;99006.06;7617684;32;40073;-76
2022/08/16 17:36:06;;;;;;;13.40;5.20;;;;;;;33.31;23.79;99011.59;7629425;32;37844;-75
2022/08/16 17:40:26;;;;;;;8.55;3.65;;;;;;;32.99;26.99;99020.91;7617320;32;36263;-74
2022/08/16 17:45:02;;;;;;;5.72;3.12;;;;;;;32.53;28.47;99018.00;7630090;32;39455;-74
2022/08/16 17:49:19;;;;;;;17.02;9.63;;;;;;;32.37;28.78;99016.78;7629996;32;39956;-78
2022/08/16 17:53:35;;;;;;;8.82;5.37;;;;;;;31.97;30.21;99025.28;7630250;32;37994;-76
2022/08/16 17:57:52;;;;;;;10.50;4.28;;;;;;;31.69;30.90;99031.56;7616784;32;37223;-76
2022/08/16 18:02:09;;;;;;;9.02;3.72;;;;;;;31.49;31.97;99028.72;7629616;32;40101;-77
2022/08/16 18:06:46;;;;;;;6.93;3.17;;;;;;;30.94;34.75;99033.75;7621065;32;41198;-75
2022/08/16 18:11:03;;;;;;;5.70;3.28;;;;;;;30.57;36.49;99036.34;7629355;32;38683;-78
2022/08/16 18:15:24;;;;;;;6.18;3.47;;;;;;;30.09;38.91;99045.88;7609062;32;38069;-75
2022/08/16 18:19:40;;;;;;;4.60;2.95;;;;;;;29.84;39.93;99047.00;7633470;32;40062;-74
2022/08/16 18:23:56;;;;;;;8.20;3.08;;;;;;;29.49;40.63;99054.59;7633381;32;40686;-74
2022/08/16 18:28:13;;;;;;;6.25;3.50;;;;;;;29.08;41.98;99057.41;7632822;32;38759;-73
2022/08/16 18:32:29;;;;;;;6.57;3.33;;;;;;;28.89;42.75;99059.59;7632914;32;37872;-72
2022/08/16 18:36:46;;;;;;;6.40;3.60;;;;;;;28.52;44.16;99069.44;7632037;32;40185;-73
2022/08/16 18:41:03;;;;;;;10.15;3.70;;;;;;;28.46;43.90;99057.88;7632778;32;40889;-77
2022/08/16 18:45:21;;;;;;;9.77;3.35;;;;;;;28.22;44.27;99064.44;7618346;32;39173;-76
2022/08/16 18:49:37;;;;;;;6.45;3.90;;;;;;;28.09;44.13;99070.50;7606324;32;37051;-77
2022/08/16 18:53:55;;;;;;;10.07;4.43;;;;;;;28.14;43.89;99068.47;7632811;32;39881;-75
2022/08/16 18:58:13;;;;;;;9.13;4.55;;;;;;;27.95;44.41;99083.78;7632686;32;38542;-76
2022/08/16 19:02:29;;;;;;;6.62;3.83;;;;;;;27.88;44.09;99078.97;7632515;32;37975;-74
2022/08/16 19:07:06;;;;;;;4.85;3.28;;;;;;;27.81;43.35;99084.63;7632348;32;38078;-75
2022/08/16 19:11:24;;;;;;;7.05;2.90;;;;;;;28.01;40.25;99082.12;7632699;32;39435;-77
2022/08/16 19:15:42;;;;;;;8.05;3.12;;;;;;;28.05;39.47;99094.94;7632332;32;38949;-75
2022/08/16 19:19:59;;;;;;;5.85;2.70;;;;;;;28.01;39.40;99105.38;7632879;32;36822;-74
2022/08/16 19:24:16;;;;;;;6.30;2.83;;;;;;;28.06;39.37;99088.13;7631655;32;37308;-77
2022/08/16 19:28:36;;;;;;;8.90;4.53;;;;;;;27.89;39.32;99086.19;7629177;32;39787;-75
2022/08/16 19:33:13;;;;;;;18.75;10.98;;;;;;;27.63;40.71;99096.69;7629169;32;40279;-75
2022/08/16 19:37:29;;;;;;;45.85;23.35;;;;;;;27.52;40.93;99095.88;7629418;32;38666;-75
2022/08/16 19:41:48;;;;;;;24.75;10.65;;;;;;;27.40;42.21;99099.91;7631425;32;38377;-75
2022/08/16 19:46:09;;;;;;;57.40;34.67;;;;;;;27.38;42.79;99107.13;7632287;32;39337;-75
2022/08/16 19:50:28;;;;;;;17.02;9.43;;;;;;;27.18;43.91;99115.88;7631804;32;39976;-76
2022/08/16 19:55:02;;;;;;;8.50;4.50;;;;;;;26.92;44.93;99109.53;7631860;32;38890;-75
2022/08/16 19:59:19;;;;;;;9.55;4.75;;;;;;;27.00;44.73;99103.94;7619667;32;37271;-76
2022/08/16 20:03:37;;;;;;;11.40;6.37;;;;;;;26.91;44.50;99113.50;7631856;32;39259;-75
2022/08/16 20:07:55;;;;;;;5.93;3.80;;;;;;;26.65;44.58;99117.50;7630838;32;38580;-75
2022/08/16 20:12:21;;;;;;;7.03;3.62;;;;;;;26.68;43.29;99118.69;7631989;32;38516;-75
2022/08/16 20:16:38;;;;;;;5.97;3.03;;;;;;;26.71;42.05;99120.69;7618944;32;37147;-75
2022/08/16 20:20:55;;;;;;;5.72;3.35;;;;;;;26.50;42.37;99122.22;7631727;32;39350;-75
2022/08/16 20:25:15;;;;;;;7.10;3.25;;;;;;;26.64;41.46;99126.25;7617997;32;40008;-75
2022/08/16 20:29:32;;;;;;;6.37;3.33;;;;;;;26.58;40.44;99131.44;7632092;32;37954;-74